Time;durP1;ratioP1;P1;durP2;ratioP2;P2;SDS_P1;SDS_P2;PMS_P1;PMS_P2;Temp;Humidity;BMP_temperature;BMP_pressure;BME280_temperature;BME280_humidity;BME280_pressure;Samples;Min_cycle;Max_cycle;Signal;HPM_P1;HPM_P2
2022/10/28 00:02:06;;;;;;;2.20;1.75;;;;;;;;;;5053693;28;20051;-40
2022/10/28 00:04:31;;;;;;;3.45;1.58;;;;;;;;;;5053551;28;20040;-40
2022/10/28 00:06:57;;;;;;;5.85;1.65;;;;;;;;;;5053657;28;20051;-41
2022/10/28 00:09:22;;;;;;;1.52;1.42;;;;;;;;;;5053445;28;20025;-41
2022/10/28 00:11:47;;;;;;;7.13;1.88;;;;;;;;;;5053144;28;20020;-41
2022/10/28 00:14:13;;;;;;;2.17;1.45;;;;;;;;;;5053508;28;20029;-40
2022/10/28 00:16:39;;;;;;;3.40;1.90;;;;;;;;;;5052361;28;20025;-40
2022/10/28 00:19:05;;;;;;;4.25;2.00;;;;;;;;;;5053073;28;20127;-41
2022/10/28 00:21:32;;;;;;;2.35;1.63;;;;;;;;;;5053049;28;20025;-40
2022/10/28 00:23:57;;;;;;;3.58;1.83;;;;;;;;;;5068327;28;20482;-40
2022/10/28 00:26:24;;;;;;;2.35;1.73;;;;;;;;;;5052945;28;20044;-40
2022/10/28 00:28:51;;;;;;;3.45;1.67;;;;;;;;;;5052882;28;20025;-40
2022/10/28 00:31:18;;;;;;;4.30;1.60;;;;;;;;;;5052836;28;20017;-40
2022/10/28 00:33:44;;;;;;;2.92;1.85;;;;;;;;;;5052800;28;20024;-40
2022/10/28 00:36:17;;;;;;;1.58;1.48;;;;;;;;;;5052671;28;20078;-43
2022/10/28 00:38:43;;;;;;;2.72;1.88;;;;;;;;;;5052620;28;20048;-40
2022/10/28 00:41:09;;;;;;;4.50;1.77;;;;;;;;;;5052513;28;20060;-40
2022/10/28 00:43:36;;;;;;;9.65;2.33;;;;;;;;;;5052579;28;20028;-40
2022/10/28 00:46:02;;;;;;;3.28;1.45;;;;;;;;;;5052905;28;20024;-40
2022/10/28 00:48:28;;;;;;;5.82;1.73;;;;;;;;;;5052398;28;20045;-40
2022/10/28 00:50:54;;;;;;;6.03;2.47;;;;;;;;;;5052515;28;20017;-41
2022/10/28 00:53:31;;;;;;;5.43;1.92;;;;;;;;;;5052705;28;20214;-41
2022/10/28 00:55:57;;;;;;;2.58;1.60;;;;;;;;;;5052559;28;20060;-40
2022/10/28 00:58:24;;;;;;;4.10;2.13;;;;;;;;;;5052100;28;20040;-41
2022/10/28 01:00:49;;;;;;;3.60;1.80;;;;;;;;;;5052610;28;20025;-40
2022/10/28 01:03:15;;;;;;;3.03;1.70;;;;;;;;;;5052252;28;20375;-40
2022/10/28 01:05:41;;;;;;;3.47;1.58;;;;;;;;;;5051970;28;20029;-40
2022/10/28 01:08:07;;;;;;;2.58;1.73;;;;;;;;;;5052484;28;20025;-40
2022/10/28 01:10:44;;;;;;;5.88;1.63;;;;;;;;;;5052279;28;20096;-40
2022/10/28 01:13:13;;;;;;;1.83;1.35;;;;;;;;;;5052274;28;20028;-40
2022/10/28 01:15:44;;;;;;;2.10;1.67;;;;;;;;;;5052194;28;20021;-40
2022/10/28 01:18:16;;;;;;;2.97;1.52;;;;;;;;;;5051949;28;20471;-40
2022/10/28 01:20:41;;;;;;;2.55;1.75;;;;;;;;;;5052027;28;20025;-40
2022/10/28 01:23:07;;;;;;;2.05;1.00;;;;;;;;;;5051867;28;20487;-40
2022/10/28 01:25:49;;;;;;;5.75;1.55;;;;;;;;;;5051781;28;20029;-40
2022/10/28 01:28:20;;;;;;;3.28;1.83;;;;;;;;;;5050895;28;20075;-40
2022/10/28 01:30:52;;;;;;;2.40;1.60;;;;;;;;;;5051958;28;20137;-40
2022/10/28 01:33:25;;;;;;;2.53;1.58;;;;;;;;;;5051619;28;20128;-40
2022/10/28 01:35:56;;;;;;;2.63;1.73;;;;;;;;;;5051685;28;20108;-41
2022/10/28 01:38:21;;;;;;;2.92;1.58;;;;;;;;;;5051759;28;20049;-40
2022/10/28 01:40:54;;;;;;;2.47;1.88;;;;;;;;;;5051403;28;20487;-40
2022/10/28 01:43:25;;;;;;;7.40;1.65;;;;;;;;;;5051432;28;20128;-40
2022/10/28 01:46:05;;;;;;;4.35;1.45;;;;;;;;;;5051826;28;20060;-41
2022/10/28 01:48:33;;;;;;;2.35;1.42;;;;;;;;;;5051322;28;20056;-41
2022/10/28 01:51:02;;;;;;;2.95;1.90;;;;;;;;;;5051744;28;20025;-41
2022/10/28 01:53:29;;;;;;;5.22;1.63;;;;;;;;;;5051639;28;20432;-40
2022/10/28 01:55:57;;;;;;;2.75;1.42;;;;;;;;;;5051344;28;20013;-40
2022/10/28 01:58:25;;;;;;;2.50;1.30;;;;;;;;;;5051210;28;20041;-40
2022/10/28 02:00:51;;;;;;;3.35;2.00;;;;;;;;;;5051359;28;20113;-40
2022/10/28 02:03:16;;;;;;;2.33;1.02;;;;;;;;;;5051275;28;20041;-40
2022/10/28 02:05:42;;;;;;;2.58;1.67;;;;;;;;;;5051159;28;20464;-40
2022/10/28 02:08:19;;;;;;;4.78;1.60;;;;;;;;;;5051562;28;20116;-40
2022/10/28 02:10:47;;;;;;;3.35;1.77;;;;;;;;;;5051061;28;20124;-40
2022/10/28 02:13:14;;;;;;;2.72;1.30;;;;;;;;;;5051522;28;20052;-39
2022/10/28 02:15:59;;;;;;;5.40;2.28;;;;;;;;;;5051384;28;20082;-40
2022/10/28 02:18:28;;;;;;;6.82;2.13;;;;;;;;;;5050671;28;20617;-41
2022/10/28 02:20:53;;;;;;;2.97;1.45;;;;;;;;;;5051435;28;20021;-40
2022/10/28 02:23:26;;;;;;;3.97;1.88;;;;;;;;;;5050975;28;20060;-40
2022/10/28 02:25:51;;;;;;;2.80;1.25;;;;;;;;;;5051138;28;20021;-40
2022/10/28 02:28:20;;;;;;;3.85;1.33;;;;;;;;;;5051095;28;20074;-40
2022/10/28 02:30:56;;;;;;;4.53;2.75;;;;;;;;;;5051210;28;20025;-40
2022/10/28 02:33:24;;;;;;;2.97;1.27;;;;;;;;;;5050989;28;20032;-40
2022/10/28 02:35:51;;;;;;;3.65;1.63;;;;;;;;;;5051044;28;20483;-40
2022/10/28 02:38:23;;;;;;;2.42;1.55;;;;;;;;;;5050772;28;20041;-40
2022/10/28 02:40:51;;;;;;;5.60;1.37;;;;;;;;;;5054928;28;20073;-40
2022/10/28 02:43:18;;;;;;;2.38;1.25;;;;;;;;;;5054919;28;20072;-40
2022/10/28 02:45:46;;;;;;;3.47;1.55;;;;;;;;;;5055080;28;20105;-41
2022/10/28 02:48:17;;;;;;;4.47;2.05;;;;;;;;;;5054792;28;20029;-40
2022/10/28 02:50:44;;;;;;;2.30;1.33;;;;;;;;;;5054988;28;20218;-40
2022/10/28 02:53:19;;;;;;;7.00;2.45;;;;;;;;;;5054926;28;20028;-40
2022/10/28 02:55:48;;;;;;;3.97;1.65;;;;;;;;;;5054884;28;20102;-40
2022/10/28 02:58:13;;;;;;;4.97;1.80;;;;;;;;;;5054870;28;20052;-40
2022/10/28 03:00:42;;;;;;;4.72;1.90;;;;;;;;;;5054656;28;20471;-41
2022/10/28 03:03:07;;;;;;;4.22;1.73;;;;;;;;;;5054870;28;20029;-40
2022/10/28 03:05:33;;;;;;;5.07;1.67;;;;;;;;;;5054398;28;20090;-40
2022/10/28 03:07:58;;;;;;;6.80;2.05;;;;;;;;;;5054462;28;20021;-40
2022/10/28 03:10:24;;;;;;;4.10;1.77;;;;;;;;;;5054477;28;20032;-40
2022/10/28 03:12:49;;;;;;;5.93;2.33;;;;;;;;;;5054324;28;20052;-40
2022/10/28 03:15:14;;;;;;;2.47;1.73;;;;;;;;;;5054367;28;20017;-40
2022/10/28 03:17:40;;;;;;;2.42;1.63;;;;;;;;;;5054695;28;20025;-40
2022/10/28 03:20:05;;;;;;;4.68;1.48;;;;;;;;;;5054211;28;20396;-40
2022/10/28 03:22:31;;;;;;;2.92;1.65;;;;;;;;;;5054373;28;20024;-40
2022/10/28 03:24:56;;;;;;;5.45;1.45;;;;;;;;;;5054073;28;20033;-40
2022/10/28 03:27:21;;;;;;;3.40;1.70;;;;;;;;;;5053998;28;20020;-40
2022/10/28 03:29:47;;;;;;;4.70;3.03;;;;;;;;;;5054215;28;20074;-40
2022/10/28 03:32:12;;;;;;;4.40;1.45;;;;;;;;;;5053977;28;20069;-40
2022/10/28 03:34:38;;;;;;;2.95;1.55;;;;;;;;;;5053902;28;20029;-40
2022/10/28 03:37:03;;;;;;;3.40;1.27;;;;;;;;;;5053898;28;20033;-40
2022/10/28 03:39:29;;;;;;;3.13;1.80;;;;;;;;;;5053592;28;20044;-40
2022/10/28 03:41:54;;;;;;;3.75;2.33;;;;;;;;;;5053760;28;20029;-40
2022/10/28 03:44:20;;;;;;;3.53;1.48;;;;;;;;;;5053752;28;20123;-40
2022/10/28 03:46:45;;;;;;;2.78;1.30;;;;;;;;;;5054003;28;20021;-40
2022/10/28 03:49:10;;;;;;;2.83;1.58;;;;;;;;;;5053575;28;20039;-40
2022/10/28 03:51:36;;;;;;;2.13;1.48;;;;;;;;;;5052525;28;20021;-40
2022/10/28 03:54:01;;;;;;;2.45;1.73;;;;;;;;;;5053954;28;20029;-40
2022/10/28 03:56:27;;;;;;;3.08;1.83;;;;;;;;;;5053654;28;20100;-40
2022/10/28 03:58:52;;;;;;;2.15;1.38;;;;;;;;;;5053464;28;20061;-40
2022/10/28 04:01:18;;;;;;;3.45;1.70;;;;;;;;;;5053433;28;20526;-40
2022/10/28 04:03:43;;;;;;;7.85;1.70;;;;;;;;;;5053300;28;20044;-40
2022/10/28 04:06:09;;;;;;;6.32;1.67;;;;;;;;;;5053377;28;20096;-40
2022/10/28 04:08:34;;;;;;;3.72;1.02;;;;;;;;;;5053265;28;20036;-40
2022/10/28 04:11:00;;;;;;;3.28;1.73;;;;;;;;;;5053220;28;20025;-43
2022/10/28 04:13:25;;;;;;;2.65;1.75;;;;;;;;;;5053491;28;20032;-40
2022/10/28 04:15:51;;;;;;;7.65;1.38;;;;;;;;;;5053178;28;20052;-40
2022/10/28 04:18:16;;;;;;;2.88;2.05;;;;;;;;;;5053415;28;20124;-40
2022/10/28 04:20:41;;;;;;;4.97;1.48;;;;;;;;;;5053063;28;20479;-41
2022/10/28 04:23:08;;;;;;;1.40;1.23;;;;;;;;;;5053099;28;20041;-40
2022/10/28 04:25:33;;;;;;;3.60;1.50;;;;;;;;;;5053210;28;20085;-39
2022/10/28 04:27:58;;;;;;;2.00;1.02;;;;;;;;;;5052989;28;20036;-40
2022/10/28 04:30:24;;;;;;;3.35;1.35;;;;;;;;;;5053118;28;20527;-40
2022/10/28 04:32:49;;;;;;;4.88;1.67;;;;;;;;;;5053030;28;20052;-40
2022/10/28 04:35:15;;;;;;;2.65;1.33;;;;;;;;;;5052882;28;20021;-40
2022/10/28 04:37:40;;;;;;;2.50;1.50;;;;;;;;;;5052702;28;20647;-40
2022/10/28 04:40:07;;;;;;;1.88;1.17;;;;;;;;;;5052384;28;20411;-40
2022/10/28 04:42:32;;;;;;;5.93;1.75;;;;;;;;;;5052622;28;20115;-40
2022/10/28 04:44:58;;;;;;;5.07;1.67;;;;;;;;;;5052979;28;20475;-40
2022/10/28 04:47:23;;;;;;;5.50;1.73;;;;;;;;;;5052526;28;20430;-40
2022/10/28 04:49:49;;;;;;;2.15;1.13;;;;;;;;;;5052905;28;20124;-40
2022/10/28 04:52:14;;;;;;;2.05;1.52;;;;;;;;;;5052426;28;20025;-40
2022/10/28 04:54:40;;;;;;;1.60;1.17;;;;;;;;;;5052294;28;20475;-40
2022/10/28 04:57:05;;;;;;;2.45;1.50;;;;;;;;;;5052459;28;20475;-40
2022/10/28 04:59:31;;;;;;;2.75;1.30;;;;;;;;;;5052091;28;20029;-40
2022/10/28 05:01:56;;;;;;;4.53;1.92;;;;;;;;;;5067683;28;20021;-40
2022/10/28 05:04:21;;;;;;;2.72;1.48;;;;;;;;;;5052290;28;20020;-40
2022/10/28 05:06:47;;;;;;;7.95;1.92;;;;;;;;;;5052109;28;20040;-40
2022/10/28 05:09:12;;;;;;;2.75;1.60;;;;;;;;;;5052203;28;20017;-40
2022/10/28 05:11:38;;;;;;;4.35;1.02;;;;;;;;;;5051968;28;20036;-40
2022/10/28 05:14:03;;;;;;;2.38;1.63;;;;;;;;;;5052064;28;20021;-40
2022/10/28 05:16:29;;;;;;;3.15;1.67;;;;;;;;;;5051987;28;20027;-40
2022/10/28 05:18:54;;;;;;;1.90;1.67;;;;;;;;;;5067606;28;20086;-39
2022/10/28 05:21:20;;;;;;;3.10;2.03;;;;;;;;;;5051894;28;20107;-40
2022/10/28 05:23:46;;;;;;;1.98;1.48;;;;;;;;;;5051846;28;20533;-41
2022/10/28 05:26:11;;;;;;;1.58;1.10;;;;;;;;;;5051862;28;20037;-40
2022/10/28 05:28:37;;;;;;;2.20;1.27;;;;;;;;;;5051958;28;20029;-40
2022/10/28 05:31:02;;;;;;;6.32;1.70;;;;;;;;;;5051599;28;20029;-40
2022/10/28 05:33:27;;;;;;;3.90;1.30;;;;;;;;;;5051731;28;20036;-40
2022/10/28 05:35:53;;;;;;;4.63;1.48;;;;;;;;;;5051677;28;20020;-40
2022/10/28 05:38:19;;;;;;;2.53;1.77;;;;;;;;;;5051653;28;20029;-43
2022/10/28 05:40:44;;;;;;;2.17;1.38;;;;;;;;;;5051493;28;20518;-39
2022/10/28 05:43:11;;;;;;;5.80;1.48;;;;;;;;;;5051479;28;20060;-39
2022/10/28 05:45:37;;;;;;;3.78;1.48;;;;;;;;;;5051768;28;20025;-40
2022/10/28 05:48:02;;;;;;;2.30;1.52;;;;;;;;;;5051600;28;20025;-39
2022/10/28 05:50:28;;;;;;;2.63;1.35;;;;;;;;;;5051322;28;20111;-40
2022/10/28 05:52:54;;;;;;;2.13;1.60;;;;;;;;;;5051481;28;20467;-40
2022/10/28 05:55:21;;;;;;;3.17;1.75;;;;;;;;;;5051388;28;20043;-40
2022/10/28 05:57:47;;;;;;;4.47;1.92;;;;;;;;;;5049965;28;20132;-40
2022/10/28 06:00:13;;;;;;;5.20;1.95;;;;;;;;;;5051339;28;20540;-39
2022/10/28 06:02:39;;;;;;;1.77;1.67;;;;;;;;;;5051159;28;20021;-40
2022/10/28 06:05:05;;;;;;;2.42;1.55;;;;;;;;;;5050034;28;20037;-40
2022/10/28 06:07:31;;;;;;;2.72;1.42;;;;;;;;;;5051119;28;20021;-40
2022/10/28 06:09:56;;;;;;;3.28;1.40;;;;;;;;;;5051615;28;20040;-40
2022/10/28 06:12:22;;;;;;;3.40;1.05;;;;;;;;;;5051434;28;20027;-40
2022/10/28 06:14:48;;;;;;;3.83;1.67;;;;;;;;;;5050525;28;20044;-40
2022/10/28 06:17:13;;;;;;;2.42;1.55;;;;;;;;;;5051265;28;20021;-40
2022/10/28 06:19:38;;;;;;;4.70;1.40;;;;;;;;;;5050958;28;20041;-40
2022/10/28 06:22:04;;;;;;;3.42;2.20;;;;;;;;;;5051105;28;20020;-39
2022/10/28 06:24:29;;;;;;;4.32;1.55;;;;;;;;;;5051297;28;20044;-39
2022/10/28 06:26:55;;;;;;;2.50;1.10;;;;;;;;;;5049742;28;20032;-40
2022/10/28 06:29:20;;;;;;;2.20;1.23;;;;;;;;;;5051090;28;20037;-40
2022/10/28 06:31:46;;;;;;;2.97;1.50;;;;;;;;;;5050963;28;20028;-40
2022/10/28 06:34:12;;;;;;;1.60;1.50;;;;;;;;;;5051255;28;20067;-40
2022/10/28 06:36:37;;;;;;;5.97;1.98;;;;;;;;;;5051034;28;20017;-41
2022/10/28 06:39:03;;;;;;;2.63;1.55;;;;;;;;;;5050953;28;20507;-40
2022/10/28 06:41:29;;;;;;;2.35;1.20;;;;;;;;;;5050736;28;20044;-40
2022/10/28 06:43:54;;;;;;;4.55;2.05;;;;;;;;;;5066371;28;20029;-39
2022/10/28 06:46:20;;;;;;;1.90;1.30;;;;;;;;;;5051101;28;20059;-40
2022/10/28 06:48:46;;;;;;;3.45;1.23;;;;;;;;;;5050820;28;20034;-40
2022/10/28 06:51:11;;;;;;;3.42;1.65;;;;;;;;;;5051045;28;20028;-39
2022/10/28 06:53:37;;;;;;;2.15;1.73;;;;;;;;;;5050813;28;20499;-40
2022/10/28 06:56:03;;;;;;;2.33;1.40;;;;;;;;;;5050907;28;20019;-39
2022/10/28 06:58:28;;;;;;;3.50;1.75;;;;;;;;;;5050611;28;20028;-40
2022/10/28 07:00:54;;;;;;;2.55;1.67;;;;;;;;;;5050760;28;20176;-40
2022/10/28 07:03:19;;;;;;;2.70;1.20;;;;;;;;;;5050853;28;20100;-40
2022/10/28 07:05:45;;;;;;;5.00;1.33;;;;;;;;;;5050646;28;20498;-39
2022/10/28 07:08:11;;;;;;;5.72;1.63;;;;;;;;;;5050695;28;20499;-40
2022/10/28 07:10:37;;;;;;;1.80;1.10;;;;;;;;;;5050573;28;20059;-40
2022/10/28 07:13:03;;;;;;;2.17;1.10;;;;;;;;;;5050759;28;20391;-40
2022/10/28 07:15:28;;;;;;;1.90;1.17;;;;;;;;;;5050535;28;20029;-40
2022/10/28 07:17:54;;;;;;;1.65;1.48;;;;;;;;;;5050535;28;20036;-40
2022/10/28 07:20:20;;;;;;;2.05;1.40;;;;;;;;;;5050655;28;20040;-40
2022/10/28 07:22:46;;;;;;;1.40;0.85;;;;;;;;;;5050695;28;20056;-40
2022/10/28 07:25:11;;;;;;;3.15;1.40;;;;;;;;;;5050595;28;20021;-40
2022/10/28 07:27:37;;;;;;;3.10;1.80;;;;;;;;;;5054080;28;20033;-40
2022/10/28 07:30:02;;;;;;;1.20;1.00;;;;;;;;;;5054102;28;20082;-40
2022/10/28 07:32:31;;;;;;;2.17;1.67;;;;;;;;;;5053932;28;20037;-40
2022/10/28 07:34:57;;;;;;;2.25;1.13;;;;;;;;;;5053988;28;20017;-40
2022/10/28 07:37:22;;;;;;;3.35;1.55;;;;;;;;;;5054175;28;20032;-40
2022/10/28 07:39:48;;;;;;;3.53;1.35;;;;;;;;;;5053635;28;20478;-40
2022/10/28 07:42:13;;;;;;;2.40;1.48;;;;;;;;;;5053862;28;20484;-40
2022/10/28 07:44:39;;;;;;;3.08;1.67;;;;;;;;;;5053672;28;20060;-41
2022/10/28 07:47:05;;;;;;;3.78;1.45;;;;;;;;;;5053789;28;20060;-40
2022/10/28 07:49:30;;;;;;;3.92;1.80;;;;;;;;;;5053961;28;20017;-40
2022/10/28 07:51:55;;;;;;;2.05;0.90;;;;;;;;;;5053948;28;20083;-39
2022/10/28 07:54:21;;;;;;;2.53;1.52;;;;;;;;;;5053616;28;20021;-41
2022/10/28 07:56:47;;;;;;;1.45;1.20;;;;;;;;;;5053530;28;20104;-40
2022/10/28 07:59:12;;;;;;;5.22;1.98;;;;;;;;;;5053425;28;20056;-40
2022/10/28 08:01:38;;;;;;;3.67;1.50;;;;;;;;;;5053610;28;20033;-43
2022/10/28 08:04:03;;;;;;;1.42;0.95;;;;;;;;;;5053582;28;20479;-40
2022/10/28 08:06:29;;;;;;;2.45;1.50;;;;;;;;;;5053235;28;20068;-40
2022/10/28 08:08:55;;;;;;;1.55;1.15;;;;;;;;;;5053700;28;20100;-40
2022/10/28 08:11:22;;;;;;;1.77;1.15;;;;;;;;;;5053551;28;20060;-40
2022/10/28 08:13:48;;;;;;;1.52;1.33;;;;;;;;;;5053367;28;20428;-40
2022/10/28 08:16:14;;;;;;;2.40;1.40;;;;;;;;;;5053264;28;20068;-39
2022/10/28 08:18:39;;;;;;;1.60;1.42;;;;;;;;;;5053013;28;20028;-40
2022/10/28 08:21:06;;;;;;;2.53;1.80;;;;;;;;;;5053076;28;20036;-41
2022/10/28 08:23:32;;;;;;;2.97;1.48;;;;;;;;;;5053023;28;20471;-40
2022/10/28 08:25:58;;;;;;;5.32;1.77;;;;;;;;;;5052927;28;20067;-40
2022/10/28 08:28:23;;;;;;;3.63;1.33;;;;;;;;;;5053282;28;20074;-40
2022/10/28 08:30:49;;;;;;;3.83;1.23;;;;;;;;;;5053082;28;20382;-40
2022/10/28 08:33:15;;;;;;;1.92;1.35;;;;;;;;;;5052838;28;20479;-40
2022/10/28 08:35:41;;;;;;;2.25;1.42;;;;;;;;;;5052869;28;20040;-41
2022/10/28 08:38:06;;;;;;;2.40;1.33;;;;;;;;;;5050962;28;20113;-41
2022/10/28 08:40:50;;;;;;;1.95;1.13;;;;;;;;;;5052408;28;20065;-40
2022/10/28 08:43:25;;;;;;;1.85;1.20;;;;;;;;;;5052720;28;20035;-40
2022/10/28 08:46:09;;;;;;;1.60;1.10;;;;;;;;;;5052643;28;20036;-40
2022/10/28 08:48:35;;;;;;;3.55;1.42;;;;;;;;;;5052473;28;20025;-40
2022/10/28 08:51:21;;;;;;;3.47;1.67;;;;;;;;;;5052823;28;20032;-41
2022/10/28 08:53:51;;;;;;;2.88;1.30;;;;;;;;;;5041540;28;20495;-40
2022/10/28 08:56:29;;;;;;;10.52;1.88;;;;;;;;;;5051387;28;20525;-40
2022/10/28 08:58:59;;;;;;;2.88;1.48;;;;;;;;;;5052353;28;20115;-40
2022/10/28 09:01:47;;;;;;;1.85;1.13;;;;;;;;;;5052277;28;20029;-40
2022/10/28 09:04:25;;;;;;;1.20;0.90;;;;;;;;;;5044348;28;20120;-41
2022/10/28 09:06:51;;;;;;;3.42;1.27;;;;;;;;;;5052134;28;20471;-40
2022/10/28 09:09:18;;;;;;;1.23;0.93;;;;;;;;;;5050939;28;20025;-40
2022/10/28 09:11:43;;;;;;;2.22;1.50;;;;;;;;;;5052252;28;20404;-40
2022/10/28 09:14:13;;;;;;;1.05;1.00;;;;;;;;;;5052145;28;20025;-40
2022/10/28 09:16:44;;;;;;;7.60;1.52;;;;;;;;;;5050629;28;20124;-40
2022/10/28 09:19:25;;;;;;;2.53;1.30;;;;;;;;;;5067529;28;20037;-40
2022/10/28 09:21:59;;;;;;;3.75;1.50;;;;;;;;;;5051873;28;20021;-40
2022/10/28 09:24:45;;;;;;;1.40;1.10;;;;;;;;;;5052244;28;20086;-40
2022/10/28 09:27:10;;;;;;;2.00;1.40;;;;;;;;;;5020849;28;20065;-40
2022/10/28 09:29:36;;;;;;;1.40;1.27;;;;;;;;;;5052164;28;20049;-40
2022/10/28 09:32:07;;;;;;;0.95;0.85;;;;;;;;;;5051674;28;20133;-40
2022/10/28 09:34:38;;;;;;;3.80;1.38;;;;;;;;;;5052007;28;20487;-40
2022/10/28 09:37:13;;;;;;;1.70;1.25;;;;;;;;;;5051685;28;20031;-41
2022/10/28 09:39:44;;;;;;;2.15;1.27;;;;;;;;;;5051559;28;20041;-41
2022/10/28 09:42:13;;;;;;;2.03;1.30;;;;;;;;;;5051809;28;20036;-41
2022/10/28 09:44:42;;;;;;;2.30;1.55;;;;;;;;;;5051437;28;20102;-40
2022/10/28 09:47:13;;;;;;;1.75;1.40;;;;;;;;;;5051544;28;20483;-40
2022/10/28 09:49:39;;;;;;;2.85;1.42;;;;;;;;;;5050708;28;20475;-41
2022/10/28 09:52:08;;;;;;;1.85;1.42;;;;;;;;;;5066848;28;20415;-41
2022/10/28 09:54:36;;;;;;;4.82;1.25;;;;;;;;;;5051657;28;20175;-40
2022/10/28 09:57:03;;;;;;;1.33;1.05;;;;;;;;;;5051524;28;20013;-41
2022/10/28 09:59:28;;;;;;;3.53;1.30;;;;;;;;;;5066896;28;20146;-41
2022/10/28 10:01:54;;;;;;;3.50;1.77;;;;;;;;;;5051606;28;20499;-41
2022/10/28 10:04:20;;;;;;;3.28;1.63;;;;;;;;;;5051328;28;20056;-41
2022/10/28 10:06:48;;;;;;;1.90;1.40;;;;;;;;;;5051193;28;20758;-40
2022/10/28 10:09:18;;;;;;;3.85;1.60;;;;;;;;;;5051658;28;20025;-40
2022/10/28 10:11:45;;;;;;;1.63;1.05;;;;;;;;;;5066562;28;20012;-40
2022/10/28 10:14:32;;;;;;;7.97;1.55;;;;;;;;;;5067029;28;20087;-40
2022/10/28 10:17:01;;;;;;;2.03;1.33;;;;;;;;;;5051223;28;20123;-40
2022/10/28 10:19:27;;;;;;;1.90;1.23;;;;;;;;;;5051193;28;20579;-40
2022/10/28 10:21:53;;;;;;;3.45;1.30;;;;;;;;;;5050937;28;20120;-40
2022/10/28 10:24:24;;;;;;;1.30;1.10;;;;;;;;;;5051209;28;20025;-40
2022/10/28 10:26:51;;;;;;;1.70;1.25;;;;;;;;;;5050991;28;20079;-41
2022/10/28 10:29:17;;;;;;;2.53;1.92;;;;;;;;;;5051399;28;20048;-40
2022/10/28 10:31:43;;;;;;;3.35;1.60;;;;;;;;;;5050978;28;20700;-40
2022/10/28 10:34:25;;;;;;;2.03;1.50;;;;;;;;;;5051255;28;20432;-40
2022/10/28 10:36:53;;;;;;;1.73;1.40;;;;;;;;;;5050984;28;20184;-40
2022/10/28 10:39:25;;;;;;;2.70;1.67;;;;;;;;;;5050943;28;20032;-41
2022/10/28 10:41:52;;;;;;;1.38;1.17;;;;;;;;;;5050741;28;20052;-41
2022/10/28 10:44:17;;;;;;;4.60;1.23;;;;;;;;;;5051183;28;20041;-40
2022/10/28 10:46:43;;;;;;;2.78;1.50;;;;;;;;;;5050890;28;20095;-40
2022/10/28 10:49:12;;;;;;;5.90;1.83;;;;;;;;;;5050829;28;20021;-41
2022/10/28 10:51:40;;;;;;;2.13;1.08;;;;;;;;;;5050749;28;20558;-40
2022/10/28 10:54:12;;;;;;;1.92;1.40;;;;;;;;;;5050945;28;20021;-40
2022/10/28 10:56:37;;;;;;;8.68;1.60;;;;;;;;;;5050722;28;20050;-41
2022/10/28 10:59:04;;;;;;;1.92;1.40;;;;;;;;;;5050862;28;20068;-40
2022/10/28 11:01:35;;;;;;;7.68;1.35;;;;;;;;;;5054245;28;20104;-40
2022/10/28 11:04:05;;;;;;;6.45;1.35;;;;;;;;;;5054876;28;20037;-41
2022/10/28 11:06:33;;;;;;;3.03;1.40;;;;;;;;;;5054427;28;20052;-40
2022/10/28 11:09:01;;;;;;;2.47;1.38;;;;;;;;;;5054541;28;20509;-41
2022/10/28 11:11:39;;;;;;;5.63;1.33;;;;;;;;;;5054419;28;20021;-40
2022/10/28 11:14:08;;;;;;;4.63;1.50;;;;;;;;;;5054533;28;20502;-41
2022/10/28 11:16:44;;;;;;;4.05;1.10;;;;;;;;;;5054320;28;20017;-40
2022/10/28 11:19:20;;;;;;;1.40;1.00;;;;;;;;;;5054309;28;20426;-40
2022/10/28 11:21:56;;;;;;;2.35;1.38;;;;;;;;;;5054215;28;20025;-40
2022/10/28 11:24:31;;;;;;;2.33;1.35;;;;;;;;;;5054268;28;20031;-40
2022/10/28 11:27:02;;;;;;;1.65;1.13;;;;;;;;;;5054221;28;20025;-40
2022/10/28 11:29:28;;;;;;;3.38;1.15;;;;;;;;;;5054390;28;20041;-41
2022/10/28 11:35:15;;;;;;;6.57;1.27;;;;;;;;;;4924294;29;20066;-40
2022/10/28 11:37:40;;;;;;;1.13;0.90;;;;;;;;;;4937184;29;20390;-40
2022/10/28 11:40:18;;;;;;;2.88;1.63;;;;;;;;;;4936645;29;20043;-40
2022/10/28 11:42:43;;;;;;;4.97;0.95;;;;;;;;;;4936815;29;20035;-42
2022/10/28 11:45:21;;;;;;;1.25;0.85;;;;;;;;;;4951452;29;20023;-40
2022/10/28 11:47:50;;;;;;;2.55;0.93;;;;;;;;;;4936776;29;20390;-40
2022/10/28 11:50:36;;;;;;;1.40;1.00;;;;;;;;;;4936611;29;20472;-40
2022/10/28 11:53:24;;;;;;;1.90;1.30;;;;;;;;;;4936777;29;20057;-40
2022/10/28 11:56:15;;;;;;;2.38;1.42;;;;;;;;;;4933487;29;20502;-40
2022/10/28 11:58:46;;;;;;;2.35;1.20;;;;;;;;;;4936513;29;20159;-40
2022/10/28 12:01:12;;;;;;;1.95;0.85;;;;;;;;;;4936313;29;20043;-40
2022/10/28 12:03:46;;;;;;;1.42;0.85;;;;;;;;;;4936458;29;20031;-41
2022/10/28 12:06:22;;;;;;;4.78;1.70;;;;;;;;;;4936315;29;20035;-40
2022/10/28 12:08:47;;;;;;;6.72;1.85;;;;;;;;;;4936247;29;20031;-40
2022/10/28 12:11:12;;;;;;;1.05;0.80;;;;;;;;;;4935669;29;20386;-40
2022/10/28 12:13:41;;;;;;;1.65;0.85;;;;;;;;;;4936343;29;20027;-40
2022/10/28 12:16:07;;;;;;;3.08;0.75;;;;;;;;;;4936023;29;20026;-40
2022/10/28 12:18:39;;;;;;;1.67;0.63;;;;;;;;;;4936097;29;20035;-40
2022/10/28 12:21:14;;;;;;;6.00;1.10;;;;;;;;;;4935971;29;20049;-40
2022/10/28 12:23:40;;;;;;;2.70;0.82;;;;;;;;;;4935993;29;20628;-40
2022/10/28 12:26:07;;;;;;;1.77;1.08;;;;;;;;;;4935878;29;20031;-40
2022/10/28 12:28:35;;;;;;;0.93;0.80;;;;;;;;;;4936278;29;20043;-40
2022/10/28 12:31:01;;;;;;;2.85;1.13;;;;;;;;;;4935861;29;20024;-40
2022/10/28 12:33:31;;;;;;;5.78;0.85;;;;;;;;;;4935857;29;20043;-40
2022/10/28 12:36:16;;;;;;;0.85;0.82;;;;;;;;;;4935684;29;20059;-40
2022/10/28 12:39:06;;;;;;;1.48;1.15;;;;;;;;;;4934439;29;20050;-40
2022/10/28 12:41:46;;;;;;;1.58;0.90;;;;;;;;;;4927909;29;20035;-40
2022/10/28 12:44:15;;;;;;;1.48;1.10;;;;;;;;;;4935446;29;20062;-40
2022/10/28 12:46:43;;;;;;;4.47;2.28;;;;;;;;;;4935635;29;20050;-40
2022/10/28 12:49:15;;;;;;;1.50;1.30;;;;;;;;;;4935533;29;20032;-40
2022/10/28 12:51:41;;;;;;;2.28;1.20;;;;;;;;;;4950113;29;20059;-40
2022/10/28 12:54:15;;;;;;;4.47;1.80;;;;;;;;;;4935645;29;20051;-40
2022/10/28 12:56:48;;;;;;;1.50;1.00;;;;;;;;;;4935764;29;20427;-40
2022/10/28 12:59:22;;;;;;;1.45;0.90;;;;;;;;;;4935433;29;20094;-41
2022/10/28 13:01:48;;;;;;;3.38;1.55;;;;;;;;;;4935472;29;20331;-40
2022/10/28 13:04:14;;;;;;;1.80;1.08;;;;;;;;;;4935217;29;20104;-40
2022/10/28 13:06:58;;;;;;;1.65;1.00;;;;;;;;;;4949942;29;20115;-41
2022/10/28 13:09:36;;;;;;;1.33;0.90;;;;;;;;;;4935499;29;20166;-41
2022/10/28 13:12:20;;;;;;;4.28;1.23;;;;;;;;;;4935141;29;20167;-41
2022/10/28 13:14:53;;;;;;;2.55;1.58;;;;;;;;;;4935070;29;20039;-40
2022/10/28 13:17:36;;;;;;;4.75;1.20;;;;;;;;;;4935003;29;20501;-41
2022/10/28 13:20:21;;;;;;;1.35;1.08;;;;;;;;;;4934890;29;20051;-41
2022/10/28 13:22:46;;;;;;;1.98;1.55;;;;;;;;;;4934907;29;20047;-41
2022/10/28 13:25:31;;;;;;;2.80;0.90;;;;;;;;;;4934866;29;20015;-40
2022/10/28 13:27:58;;;;;;;2.13;1.38;;;;;;;;;;4934888;29;20473;-41
2022/10/28 13:30:24;;;;;;;2.70;1.15;;;;;;;;;;4935142;29;20446;-40
2022/10/28 13:32:59;;;;;;;0.82;0.80;;;;;;;;;;4934854;29;20478;-41
2022/10/28 13:35:26;;;;;;;4.57;0.68;;;;;;;;;;4934630;29;20040;-40
2022/10/28 13:37:52;;;;;;;2.15;1.10;;;;;;;;;;4934760;29;20023;-41
2022/10/28 13:40:21;;;;;;;3.13;1.02;;;;;;;;;;4934648;29;20054;-41
2022/10/28 13:42:47;;;;;;;3.17;1.83;;;;;;;;;;4934652;29;20019;-41
2022/10/28 13:45:42;;;;;;;4.13;1.30;;;;;;;;;;4934562;29;20114;-40
2022/10/28 13:48:26;;;;;;;2.38;1.25;;;;;;;;;;4921769;29;20091;-41
2022/10/28 13:51:11;;;;;;;2.38;1.13;;;;;;;;;;4934546;29;20392;-41
2022/10/28 13:53:46;;;;;;;1.55;0.90;;;;;;;;;;4934412;29;20557;-41
2022/10/28 13:56:17;;;;;;;3.85;1.00;;;;;;;;;;4934339;29;20035;-40
2022/10/28 13:58:50;;;;;;;2.95;0.98;;;;;;;;;;4934417;29;20503;-41
2022/10/28 14:01:15;;;;;;;;;;;;;;;;;;4935105;29;20032;-40
2022/10/28 14:03:49;;;;;;;3.40;1.60;;;;;;;;;;4934322;29;20360;-40
2022/10/28 14:06:28;;;;;;;1.60;0.90;;;;;;;;;;4934397;29;20073;-41
2022/10/28 14:08:54;;;;;;;2.83;1.27;;;;;;;;;;4934420;29;20059;-40
2022/10/28 14:11:24;;;;;;;4.10;1.08;;;;;;;;;;4932884;29;20038;-40
2022/10/28 14:13:59;;;;;;;1.88;1.17;;;;;;;;;;4934552;29;20062;-40
2022/10/28 14:16:25;;;;;;;1.40;0.95;;;;;;;;;;4934280;29;20067;-41
2022/10/28 14:19:01;;;;;;;2.58;1.38;;;;;;;;;;4934158;29;20039;-41
2022/10/28 14:21:42;;;;;;;1.13;0.70;;;;;;;;;;4934306;29;20028;-40
2022/10/28 14:24:12;;;;;;;6.53;2.35;;;;;;;;;;4934279;29;20402;-40
2022/10/28 14:26:56;;;;;;;16.48;2.03;;;;;;;;;;4934227;29;20035;-41
2022/10/28 14:29:22;;;;;;;5.60;0.95;;;;;;;;;;4934104;29;20024;-41
2022/10/28 14:31:48;;;;;;;1.48;1.13;;;;;;;;;;4934172;29;20027;-41
2022/10/28 14:34:16;;;;;;;2.38;1.02;;;;;;;;;;4933877;29;20032;-40
2022/10/28 14:36:55;;;;;;;3.97;1.67;;;;;;;;;;4937791;29;20098;-41
2022/10/28 14:39:27;;;;;;;2.05;1.10;;;;;;;;;;4938014;29;20055;-40
2022/10/28 14:42:05;;;;;;;1.38;1.10;;;;;;;;;;4938201;29;20027;-40
2022/10/28 14:44:46;;;;;;;2.63;0.88;;;;;;;;;;4937811;29;20681;-41
2022/10/28 14:47:30;;;;;;;3.30;1.10;;;;;;;;;;4937705;29;20079;-40
2022/10/28 14:49:56;;;;;;;2.17;1.15;;;;;;;;;;4937833;29;20079;-40
2022/10/28 14:52:21;;;;;;;1.45;1.05;;;;;;;;;;4937806;29;20087;-41
2022/10/28 14:54:54;;;;;;;1.90;1.25;;;;;;;;;;4937611;29;20031;-41
2022/10/28 14:57:25;;;;;;;3.03;1.02;;;;;;;;;;4937578;29;20122;-41